sensor_id;sensor_type;location;lat;lon;timestamp;P1;durP1;ratioP1;P2;durP2;ratioP2
40717;SDS011;26405;51.850;-2.246;2022-12-13T00:01:29;28.45;;;16.65;;
40717;SDS011;26405;51.850;-2.246;2022-12-13T00:03:55;30.17;;;17.27;;
40717;SDS011;26405;51.850;-2.246;2022-12-13T00:06:20;29.25;;;16.70;;
40717;SDS011;26405;51.850;-2.246;2022-12-13T00:08:46;27.67;;;16.40;;
40717;SDS011;26405;51.850;-2.246;2022-12-13T00:11:12;28.58;;;16.25;;
40717;SDS011;26405;51.850;-2.246;2022-12-13T00:13:37;30.63;;;17.63;;
40717;SDS011;26405;51.850;-2.246;2022-12-13T00:16:04;27.63;;;16.58;;
40717;SDS011;26405;51.850;-2.246;2022-12-13T00:18:31;30.10;;;16.98;;
40717;SDS011;26405;51.850;-2.246;2022-12-13T00:20:56;29.85;;;16.17;;
40717;SDS011;26405;51.850;-2.246;2022-12-13T00:23:22;29.35;;;16.95;;
40717;SDS011;26405;51.850;-2.246;2022-12-13T00:25:47;29.23;;;16.98;;
40717;SDS011;26405;51.850;-2.246;2022-12-13T00:28:13;30.20;;;17.38;;
40717;SDS011;26405;51.850;-2.246;2022-12-13T00:30:38;28.52;;;16.83;;
40717;SDS011;26405;51.850;-2.246;2022-12-13T00:33:06;28.90;;;16.65;;
40717;SDS011;26405;51.850;-2.246;2022-12-13T00:35:32;27.90;;;16.40;;
40717;SDS011;26405;51.850;-2.246;2022-12-13T00:37:57;28.42;;;16.90;;
40717;SDS011;26405;51.850;-2.246;2022-12-13T00:40:23;29.08;;;17.33;;
40717;SDS011;26405;51.850;-2.246;2022-12-13T00:42:48;28.02;;;16.83;;
40717;SDS011;26405;51.850;-2.246;2022-12-13T00:45:14;29.35;;;17.63;;
40717;SDS011;26405;51.850;-2.246;2022-12-13T00:47:39;28.48;;;16.45;;
40717;SDS011;26405;51.850;-2.246;2022-12-13T00:50:04;29.38;;;17.38;;
40717;SDS011;26405;51.850;-2.246;2022-12-13T00:52:30;28.45;;;17.33;;
40717;SDS011;26405;51.850;-2.246;2022-12-13T00:54:56;29.20;;;17.35;;
40717;SDS011;26405;51.850;-2.246;2022-12-13T00:57:21;29.30;;;17.65;;
40717;SDS011;26405;51.850;-2.246;2022-12-13T00:59:46;29.90;;;17.70;;
40717;SDS011;26405;51.850;-2.246;2022-12-13T01:02:11;29.60;;;17.58;;
40717;SDS011;26405;51.850;-2.246;2022-12-13T01:04:37;28.10;;;16.95;;
40717;SDS011;26405;51.850;-2.246;2022-12-13T01:07:02;30.15;;;16.85;;
40717;SDS011;26405;51.850;-2.246;2022-12-13T01:09:28;29.05;;;17.63;;
40717;SDS011;26405;51.850;-2.246;2022-12-13T01:11:58;28.13;;;16.80;;
40717;SDS011;26405;51.850;-2.246;2022-12-13T01:14:24;29.17;;;18.60;;
40717;SDS011;26405;51.850;-2.246;2022-12-13T01:16:49;29.90;;;18.23;;
40717;SDS011;26405;51.850;-2.246;2022-12-13T01:19:15;33.30;;;21.70;;
40717;SDS011;26405;51.850;-2.246;2022-12-13T01:21:40;34.35;;;20.98;;
40717;SDS011;26405;51.850;-2.246;2022-12-13T01:24:06;32.80;;;20.70;;
40717;SDS011;26405;51.850;-2.246;2022-12-13T01:26:31;35.33;;;21.92;;
40717;SDS011;26405;51.850;-2.246;2022-12-13T01:28:57;31.85;;;18.63;;
40717;SDS011;26405;51.850;-2.246;2022-12-13T01:31:22;31.08;;;19.40;;
40717;SDS011;26405;51.850;-2.246;2022-12-13T01:33:48;30.25;;;18.25;;
40717;SDS011;26405;51.850;-2.246;2022-12-13T01:36:14;31.17;;;19.05;;
40717;SDS011;26405;51.850;-2.246;2022-12-13T01:38:40;30.67;;;18.08;;
40717;SDS011;26405;51.850;-2.246;2022-12-13T01:41:05;29.13;;;18.15;;
40717;SDS011;26405;51.850;-2.246;2022-12-13T01:45:55;30.48;;;18.48;;
40717;SDS011;26405;51.850;-2.246;2022-12-13T01:48:23;29.65;;;18.65;;
40717;SDS011;26405;51.850;-2.246;2022-12-13T01:50:50;29.77;;;17.48;;
40717;SDS011;26405;51.850;-2.246;2022-12-13T01:53:18;141.77;;;111.50;;
40717;SDS011;26405;51.850;-2.246;2022-12-13T01:55:46;115.18;;;86.03;;
40717;SDS011;26405;51.850;-2.246;2022-12-13T01:58:13;76.68;;;60.70;;
40717;SDS011;26405;51.850;-2.246;2022-12-13T02:00:39;54.40;;;40.97;;
40717;SDS011;26405;51.850;-2.246;2022-12-13T02:03:04;43.28;;;28.75;;
40717;SDS011;26405;51.850;-2.246;2022-12-13T02:05:34;36.13;;;23.60;;
40717;SDS011;26405;51.850;-2.246;2022-12-13T02:08:01;33.78;;;21.15;;
40717;SDS011;26405;51.850;-2.246;2022-12-13T02:10:27;32.67;;;20.85;;
40717;SDS011;26405;51.850;-2.246;2022-12-13T02:12:52;33.05;;;21.23;;
40717;SDS011;26405;51.850;-2.246;2022-12-13T02:15:18;32.40;;;20.35;;
40717;SDS011;26405;51.850;-2.246;2022-12-13T02:26:07;29.65;;;18.38;;
40717;SDS011;26405;51.850;-2.246;2022-12-13T02:31:07;29.20;;;17.87;;
40717;SDS011;26405;51.850;-2.246;2022-12-13T02:33:38;29.23;;;17.70;;
40717;SDS011;26405;51.850;-2.246;2022-12-13T02:36:07;31.27;;;18.20;;
40717;SDS011;26405;51.850;-2.246;2022-12-13T02:38:55;30.60;;;18.02;;
40717;SDS011;26405;51.850;-2.246;2022-12-13T02:41:25;29.73;;;17.60;;
40717;SDS011;26405;51.850;-2.246;2022-12-13T02:44:52;29.83;;;17.33;;
40717;SDS011;26405;51.850;-2.246;2022-12-13T02:46:47;28.73;;;16.70;;
40717;SDS011;26405;51.850;-2.246;2022-12-13T02:49:14;27.33;;;16.63;;
40717;SDS011;26405;51.850;-2.246;2022-12-13T02:51:40;28.85;;;17.58;;
40717;SDS011;26405;51.850;-2.246;2022-12-13T02:54:06;29.25;;;17.50;;
40717;SDS011;26405;51.850;-2.246;2022-12-13T02:56:32;32.53;;;18.08;;
40717;SDS011;26405;51.850;-2.246;2022-12-13T02:58:57;30.15;;;17.65;;
40717;SDS011;26405;51.850;-2.246;2022-12-13T03:01:35;30.77;;;18.20;;
40717;SDS011;26405;51.850;-2.246;2022-12-13T03:12:04;26.63;;;15.60;;
40717;SDS011;26405;51.850;-2.246;2022-12-13T03:14:48;28.23;;;16.02;;
40717;SDS011;26405;51.850;-2.246;2022-12-13T03:17:17;27.05;;;15.98;;
40717;SDS011;26405;51.850;-2.246;2022-12-13T03:19:44;25.98;;;15.32;;
40717;SDS011;26405;51.850;-2.246;2022-12-13T03:22:09;26.20;;;15.38;;
40717;SDS011;26405;51.850;-2.246;2022-12-13T03:24:35;25.40;;;14.35;;
40717;SDS011;26405;51.850;-2.246;2022-12-13T03:27:00;25.48;;;14.48;;
40717;SDS011;26405;51.850;-2.246;2022-12-13T03:29:25;23.23;;;14.10;;
40717;SDS011;26405;51.850;-2.246;2022-12-13T03:31:51;23.80;;;13.55;;
40717;SDS011;26405;51.850;-2.246;2022-12-13T03:34:17;24.13;;;14.10;;
40717;SDS011;26405;51.850;-2.246;2022-12-13T03:36:42;23.77;;;14.20;;
40717;SDS011;26405;51.850;-2.246;2022-12-13T03:39:07;23.88;;;13.20;;
40717;SDS011;26405;51.850;-2.246;2022-12-13T03:41:33;24.90;;;14.43;;
40717;SDS011;26405;51.850;-2.246;2022-12-13T03:43:59;23.23;;;13.38;;
40717;SDS011;26405;51.850;-2.246;2022-12-13T03:46:24;24.45;;;13.60;;
40717;SDS011;26405;51.850;-2.246;2022-12-13T03:48:49;24.60;;;13.98;;
40717;SDS011;26405;51.850;-2.246;2022-12-13T03:51:15;25.20;;;14.57;;
40717;SDS011;26405;51.850;-2.246;2022-12-13T03:53:40;22.13;;;12.90;;
40717;SDS011;26405;51.850;-2.246;2022-12-13T03:56:05;23.50;;;14.13;;
40717;SDS011;26405;51.850;-2.246;2022-12-13T03:58:31;24.48;;;14.35;;
40717;SDS011;26405;51.850;-2.246;2022-12-13T04:00:56;23.77;;;13.48;;
40717;SDS011;26405;51.850;-2.246;2022-12-13T04:03:22;23.42;;;13.85;;
40717;SDS011;26405;51.850;-2.246;2022-12-13T04:05:47;24.65;;;13.95;;
40717;SDS011;26405;51.850;-2.246;2022-12-13T04:08:12;23.10;;;13.88;;
40717;SDS011;26405;51.850;-2.246;2022-12-13T04:10:37;24.63;;;14.13;;
40717;SDS011;26405;51.850;-2.246;2022-12-13T04:13:03;23.75;;;14.15;;
40717;SDS011;26405;51.850;-2.246;2022-12-13T04:15:47;24.30;;;14.27;;
40717;SDS011;26405;51.850;-2.246;2022-12-13T04:18:27;24.55;;;14.15;;
40717;SDS011;26405;51.850;-2.246;2022-12-13T04:20:52;25.00;;;14.40;;
40717;SDS011;26405;51.850;-2.246;2022-12-13T04:23:18;23.67;;;14.07;;
40717;SDS011;26405;51.850;-2.246;2022-12-13T04:25:43;24.38;;;14.07;;
40717;SDS011;26405;51.850;-2.246;2022-12-13T04:28:09;22.95;;;13.20;;
40717;SDS011;26405;51.850;-2.246;2022-12-13T04:30:34;22.77;;;12.93;;
40717;SDS011;26405;51.850;-2.246;2022-12-13T04:33:02;24.15;;;13.82;;
40717;SDS011;26405;51.850;-2.246;2022-12-13T04:35:28;23.65;;;13.77;;
40717;SDS011;26405;51.850;-2.246;2022-12-13T04:37:53;23.45;;;13.23;;
40717;SDS011;26405;51.850;-2.246;2022-12-13T04:40:19;23.60;;;13.30;;
40717;SDS011;26405;51.850;-2.246;2022-12-13T04:42:44;23.42;;;13.80;;
40717;SDS011;26405;51.850;-2.246;2022-12-13T04:45:12;23.90;;;13.65;;
40717;SDS011;26405;51.850;-2.246;2022-12-13T04:47:38;22.80;;;13.30;;
40717;SDS011;26405;51.850;-2.246;2022-12-13T04:50:04;22.30;;;13.07;;
40717;SDS011;26405;51.850;-2.246;2022-12-13T04:52:29;24.55;;;14.00;;
40717;SDS011;26405;51.850;-2.246;2022-12-13T04:54:54;23.02;;;13.45;;
40717;SDS011;26405;51.850;-2.246;2022-12-13T04:57:20;23.80;;;14.48;;
40717;SDS011;26405;51.850;-2.246;2022-12-13T04:59:45;24.77;;;13.60;;
40717;SDS011;26405;51.850;-2.246;2022-12-13T05:02:11;22.92;;;13.48;;
40717;SDS011;26405;51.850;-2.246;2022-12-13T05:04:36;23.20;;;12.98;;
40717;SDS011;26405;51.850;-2.246;2022-12-13T05:07:02;23.15;;;13.45;;
40717;SDS011;26405;51.850;-2.246;2022-12-13T05:09:27;23.30;;;13.48;;
40717;SDS011;26405;51.850;-2.246;2022-12-13T05:11:53;24.08;;;14.02;;
40717;SDS011;26405;51.850;-2.246;2022-12-13T05:14:18;24.00;;;14.30;;
40717;SDS011;26405;51.850;-2.246;2022-12-13T05:16:43;23.85;;;13.73;;
40717;SDS011;26405;51.850;-2.246;2022-12-13T05:19:11;24.83;;;15.15;;
40717;SDS011;26405;51.850;-2.246;2022-12-13T05:21:37;24.40;;;14.10;;
40717;SDS011;26405;51.850;-2.246;2022-12-13T05:24:02;24.48;;;14.18;;
40717;SDS011;26405;51.850;-2.246;2022-12-13T05:26:27;23.90;;;13.48;;
40717;SDS011;26405;51.850;-2.246;2022-12-13T05:28:56;24.17;;;14.50;;
40717;SDS011;26405;51.850;-2.246;2022-12-13T05:31:21;24.38;;;14.35;;
40717;SDS011;26405;51.850;-2.246;2022-12-13T05:33:46;24.45;;;15.40;;
40717;SDS011;26405;51.850;-2.246;2022-12-13T05:36:12;24.25;;;14.20;;
40717;SDS011;26405;51.850;-2.246;2022-12-13T05:38:37;24.70;;;14.45;;
40717;SDS011;26405;51.850;-2.246;2022-12-13T05:41:02;24.48;;;14.73;;
40717;SDS011;26405;51.850;-2.246;2022-12-13T05:43:31;23.17;;;14.20;;
40717;SDS011;26405;51.850;-2.246;2022-12-13T05:45:56;24.33;;;14.55;;
40717;SDS011;26405;51.850;-2.246;2022-12-13T05:48:21;25.83;;;13.95;;
40717;SDS011;26405;51.850;-2.246;2022-12-13T05:50:47;26.17;;;14.90;;
40717;SDS011;26405;51.850;-2.246;2022-12-13T05:53:12;24.17;;;14.40;;
40717;SDS011;26405;51.850;-2.246;2022-12-13T05:55:37;24.27;;;15.48;;
40717;SDS011;26405;51.850;-2.246;2022-12-13T05:58:03;25.30;;;15.65;;
40717;SDS011;26405;51.850;-2.246;2022-12-13T06:00:29;26.48;;;15.88;;
40717;SDS011;26405;51.850;-2.246;2022-12-13T06:02:54;25.20;;;15.30;;
40717;SDS011;26405;51.850;-2.246;2022-12-13T06:05:20;25.52;;;15.40;;
40717;SDS011;26405;51.850;-2.246;2022-12-13T06:07:46;25.02;;;15.27;;
40717;SDS011;26405;51.850;-2.246;2022-12-13T06:10:11;25.55;;;15.38;;
40717;SDS011;26405;51.850;-2.246;2022-12-13T06:12:36;26.98;;;14.73;;
40717;SDS011;26405;51.850;-2.246;2022-12-13T06:15:02;25.23;;;15.20;;
40717;SDS011;26405;51.850;-2.246;2022-12-13T06:17:31;25.02;;;14.63;;
40717;SDS011;26405;51.850;-2.246;2022-12-13T06:19:56;24.13;;;14.57;;
40717;SDS011;26405;51.850;-2.246;2022-12-13T06:22:21;26.33;;;16.45;;
40717;SDS011;26405;51.850;-2.246;2022-12-13T06:24:47;24.80;;;15.07;;
40717;SDS011;26405;51.850;-2.246;2022-12-13T06:27:12;25.15;;;15.10;;
40717;SDS011;26405;51.850;-2.246;2022-12-13T06:29:37;24.98;;;15.05;;
40717;SDS011;26405;51.850;-2.246;2022-12-13T06:32:02;25.25;;;15.32;;
40717;SDS011;26405;51.850;-2.246;2022-12-13T06:34:29;26.40;;;15.57;;
40717;SDS011;26405;51.850;-2.246;2022-12-13T06:36:54;24.80;;;15.53;;
40717;SDS011;26405;51.850;-2.246;2022-12-13T06:39:19;24.65;;;15.07;;
40717;SDS011;26405;51.850;-2.246;2022-12-13T06:41:45;24.38;;;14.80;;
40717;SDS011;26405;51.850;-2.246;2022-12-13T06:44:10;25.20;;;15.50;;
40717;SDS011;26405;51.850;-2.246;2022-12-13T06:46:36;26.13;;;15.77;;
40717;SDS011;26405;51.850;-2.246;2022-12-13T06:49:01;25.83;;;16.10;;
40717;SDS011;26405;51.850;-2.246;2022-12-13T06:51:26;26.33;;;16.63;;
40717;SDS011;26405;51.850;-2.246;2022-12-13T06:53:52;25.85;;;16.27;;
40717;SDS011;26405;51.850;-2.246;2022-12-13T06:56:17;25.98;;;15.40;;
40717;SDS011;26405;51.850;-2.246;2022-12-13T06:58:42;24.58;;;15.40;;
40717;SDS011;26405;51.850;-2.246;2022-12-13T07:01:09;26.70;;;16.15;;
40717;SDS011;26405;51.850;-2.246;2022-12-13T07:03:35;24.75;;;15.77;;
40717;SDS011;26405;51.850;-2.246;2022-12-13T07:06:04;26.88;;;15.65;;
40717;SDS011;26405;51.850;-2.246;2022-12-13T07:08:29;28.27;;;16.83;;
40717;SDS011;26405;51.850;-2.246;2022-12-13T07:10:55;27.27;;;16.25;;
40717;SDS011;26405;51.850;-2.246;2022-12-13T07:13:21;27.30;;;16.13;;
40717;SDS011;26405;51.850;-2.246;2022-12-13T07:15:46;26.95;;;16.65;;
40717;SDS011;26405;51.850;-2.246;2022-12-13T07:18:12;26.98;;;16.52;;
40717;SDS011;26405;51.850;-2.246;2022-12-13T07:20:38;28.52;;;16.92;;
40717;SDS011;26405;51.850;-2.246;2022-12-13T07:23:04;28.73;;;17.23;;
40717;SDS011;26405;51.850;-2.246;2022-12-13T07:25:29;26.00;;;16.90;;
40717;SDS011;26405;51.850;-2.246;2022-12-13T07:27:58;25.90;;;16.23;;
40717;SDS011;26405;51.850;-2.246;2022-12-13T07:30:24;27.38;;;17.83;;
40717;SDS011;26405;51.850;-2.246;2022-12-13T07:32:49;26.90;;;16.85;;
40717;SDS011;26405;51.850;-2.246;2022-12-13T07:35:14;27.13;;;17.02;;
40717;SDS011;26405;51.850;-2.246;2022-12-13T07:37:40;26.75;;;16.83;;
40717;SDS011;26405;51.850;-2.246;2022-12-13T07:40:05;28.60;;;17.80;;
40717;SDS011;26405;51.850;-2.246;2022-12-13T07:42:31;28.00;;;18.52;;
40717;SDS011;26405;51.850;-2.246;2022-12-13T07:44:57;27.70;;;17.95;;
40717;SDS011;26405;51.850;-2.246;2022-12-13T07:47:22;28.50;;;17.90;;
40717;SDS011;26405;51.850;-2.246;2022-12-13T07:49:47;29.00;;;18.15;;
40717;SDS011;26405;51.850;-2.246;2022-12-13T07:52:12;27.05;;;17.48;;
40717;SDS011;26405;51.850;-2.246;2022-12-13T07:54:38;28.83;;;18.40;;
40717;SDS011;26405;51.850;-2.246;2022-12-13T07:57:03;27.40;;;17.17;;
40717;SDS011;26405;51.850;-2.246;2022-12-13T07:59:28;28.83;;;19.05;;
40717;SDS011;26405;51.850;-2.246;2022-12-13T08:01:54;28.55;;;18.92;;
40717;SDS011;26405;51.850;-2.246;2022-12-13T08:04:19;29.52;;;18.58;;
40717;SDS011;26405;51.850;-2.246;2022-12-13T08:06:44;27.50;;;17.70;;
40717;SDS011;26405;51.850;-2.246;2022-12-13T08:09:09;27.95;;;18.08;;
40717;SDS011;26405;51.850;-2.246;2022-12-13T08:11:35;29.90;;;18.02;;
40717;SDS011;26405;51.850;-2.246;2022-12-13T08:14:00;28.55;;;18.25;;
40717;SDS011;26405;51.850;-2.246;2022-12-13T08:16:25;28.65;;;18.58;;
40717;SDS011;26405;51.850;-2.246;2022-12-13T08:18:51;29.25;;;18.45;;
40717;SDS011;26405;51.850;-2.246;2022-12-13T08:21:16;29.45;;;18.25;;
40717;SDS011;26405;51.850;-2.246;2022-12-13T08:23:41;28.42;;;17.88;;
40717;SDS011;26405;51.850;-2.246;2022-12-13T08:26:06;28.52;;;17.77;;
40717;SDS011;26405;51.850;-2.246;2022-12-13T08:28:32;28.83;;;17.60;;
40717;SDS011;26405;51.850;-2.246;2022-12-13T08:31:02;27.23;;;17.75;;
40717;SDS011;26405;51.850;-2.246;2022-12-13T08:33:28;28.67;;;18.30;;
40717;SDS011;26405;51.850;-2.246;2022-12-13T08:35:53;29.25;;;18.00;;
40717;SDS011;26405;51.850;-2.246;2022-12-13T08:38:19;30.52;;;19.13;;
40717;SDS011;26405;51.850;-2.246;2022-12-13T08:40:44;29.33;;;17.90;;
40717;SDS011;26405;51.850;-2.246;2022-12-13T08:43:09;27.95;;;17.63;;
40717;SDS011;26405;51.850;-2.246;2022-12-13T08:45:35;30.88;;;17.88;;
40717;SDS011;26405;51.850;-2.246;2022-12-13T08:48:00;28.33;;;16.75;;
40717;SDS011;26405;51.850;-2.246;2022-12-13T08:50:26;27.10;;;16.80;;
40717;SDS011;26405;51.850;-2.246;2022-12-13T08:52:52;27.17;;;17.08;;
40717;SDS011;26405;51.850;-2.246;2022-12-13T08:55:17;28.20;;;17.73;;
40717;SDS011;26405;51.850;-2.246;2022-12-13T08:57:43;28.17;;;17.50;;
40717;SDS011;26405;51.850;-2.246;2022-12-13T09:00:10;27.75;;;17.05;;
40717;SDS011;26405;51.850;-2.246;2022-12-13T09:02:36;29.42;;;17.08;;
40717;SDS011;26405;51.850;-2.246;2022-12-13T09:05:01;28.33;;;17.10;;
40717;SDS011;26405;51.850;-2.246;2022-12-13T09:07:27;27.00;;;16.80;;
40717;SDS011;26405;51.850;-2.246;2022-12-13T09:09:52;27.17;;;16.90;;
40717;SDS011;26405;51.850;-2.246;2022-12-13T09:12:17;28.92;;;17.10;;
40717;SDS011;26405;51.850;-2.246;2022-12-13T09:14:44;26.45;;;16.45;;
40717;SDS011;26405;51.850;-2.246;2022-12-13T09:17:09;26.55;;;16.60;;
40717;SDS011;26405;51.850;-2.246;2022-12-13T09:19:35;26.10;;;16.25;;
40717;SDS011;26405;51.850;-2.246;2022-12-13T09:22:00;27.02;;;16.23;;
40717;SDS011;26405;51.850;-2.246;2022-12-13T09:24:25;28.15;;;16.67;;
40717;SDS011;26405;51.850;-2.246;2022-12-13T09:26:50;28.33;;;17.38;;
40717;SDS011;26405;51.850;-2.246;2022-12-13T09:29:15;26.83;;;16.90;;
40717;SDS011;26405;51.850;-2.246;2022-12-13T09:31:41;27.13;;;17.08;;
40717;SDS011;26405;51.850;-2.246;2022-12-13T09:34:07;25.77;;;16.10;;
40717;SDS011;26405;51.850;-2.246;2022-12-13T09:36:32;26.33;;;16.90;;
40717;SDS011;26405;51.850;-2.246;2022-12-13T09:38:58;27.92;;;15.90;;
40717;SDS011;26405;51.850;-2.246;2022-12-13T09:41:24;28.15;;;16.27;;
40717;SDS011;26405;51.850;-2.246;2022-12-13T09:43:52;24.20;;;14.77;;
40717;SDS011;26405;51.850;-2.246;2022-12-13T09:46:38;26.02;;;15.65;;
40717;SDS011;26405;51.850;-2.246;2022-12-13T09:49:06;25.50;;;16.20;;
40717;SDS011;26405;51.850;-2.246;2022-12-13T09:51:35;26.60;;;16.35;;
40717;SDS011;26405;51.850;-2.246;2022-12-13T09:54:00;27.45;;;15.48;;
40717;SDS011;26405;51.850;-2.246;2022-12-13T09:56:26;25.70;;;15.48;;
40717;SDS011;26405;51.850;-2.246;2022-12-13T09:58:52;26.75;;;15.45;;
40717;SDS011;26405;51.850;-2.246;2022-12-13T10:01:17;25.75;;;15.27;;
40717;SDS011;26405;51.850;-2.246;2022-12-13T10:03:45;25.10;;;15.15;;
40717;SDS011;26405;51.850;-2.246;2022-12-13T10:06:12;26.63;;;15.02;;
40717;SDS011;26405;51.850;-2.246;2022-12-13T10:11:03;24.50;;;13.95;;
40717;SDS011;26405;51.850;-2.246;2022-12-13T10:16:01;26.70;;;16.08;;
40717;SDS011;26405;51.850;-2.246;2022-12-13T10:18:45;26.02;;;15.70;;
40717;SDS011;26405;51.850;-2.246;2022-12-13T10:21:21;25.70;;;15.77;;
40717;SDS011;26405;51.850;-2.246;2022-12-13T10:23:49;25.02;;;15.25;;
40717;SDS011;26405;51.850;-2.246;2022-12-13T10:26:15;25.92;;;15.77;;
40717;SDS011;26405;51.850;-2.246;2022-12-13T10:28:40;26.02;;;15.90;;
40717;SDS011;26405;51.850;-2.246;2022-12-13T10:31:06;25.88;;;15.68;;
40717;SDS011;26405;51.850;-2.246;2022-12-13T10:33:35;26.27;;;16.02;;
40717;SDS011;26405;51.850;-2.246;2022-12-13T10:36:28;26.17;;;15.55;;
40717;SDS011;26405;51.850;-2.246;2022-12-13T10:38:47;26.05;;;15.55;;
40717;SDS011;26405;51.850;-2.246;2022-12-13T10:41:25;27.52;;;17.02;;
40717;SDS011;26405;51.850;-2.246;2022-12-13T10:46:31;26.48;;;15.68;;
40717;SDS011;26405;51.850;-2.246;2022-12-13T10:48:56;25.30;;;14.90;;
40717;SDS011;26405;51.850;-2.246;2022-12-13T10:51:21;25.05;;;15.00;;
40717;SDS011;26405;51.850;-2.246;2022-12-13T10:53:48;24.52;;;15.13;;
40717;SDS011;26405;51.850;-2.246;2022-12-13T10:56:18;24.80;;;15.30;;
40717;SDS011;26405;51.850;-2.246;2022-12-13T10:58:44;27.40;;;15.85;;
40717;SDS011;26405;51.850;-2.246;2022-12-13T11:01:28;26.70;;;15.43;;
40717;SDS011;26405;51.850;-2.246;2022-12-13T11:03:58;25.73;;;15.52;;
40717;SDS011;26405;51.850;-2.246;2022-12-13T11:06:25;28.25;;;15.60;;
40717;SDS011;26405;51.850;-2.246;2022-12-13T11:08:51;25.55;;;15.18;;
40717;SDS011;26405;51.850;-2.246;2022-12-13T11:11:16;26.27;;;15.32;;
40717;SDS011;26405;51.850;-2.246;2022-12-13T11:13:52;24.33;;;14.15;;
40717;SDS011;26405;51.850;-2.246;2022-12-13T11:16:33;26.05;;;16.50;;
40717;SDS011;26405;51.850;-2.246;2022-12-13T11:19:04;25.92;;;14.80;;
40717;SDS011;26405;51.850;-2.246;2022-12-13T11:21:32;26.05;;;16.00;;
40717;SDS011;26405;51.850;-2.246;2022-12-13T11:24:01;24.83;;;14.85;;
40717;SDS011;26405;51.850;-2.246;2022-12-13T11:26:27;25.13;;;15.00;;
40717;SDS011;26405;51.850;-2.246;2022-12-13T11:31:32;25.20;;;15.05;;
40717;SDS011;26405;51.850;-2.246;2022-12-13T11:41:59;27.90;;;16.65;;
40717;SDS011;26405;51.850;-2.246;2022-12-13T11:46:54;26.15;;;16.25;;
40717;SDS011;26405;51.850;-2.246;2022-12-13T11:49:41;25.83;;;16.40;;
40717;SDS011;26405;51.850;-2.246;2022-12-13T11:52:10;25.13;;;16.15;;
40717;SDS011;26405;51.850;-2.246;2022-12-13T12:04:58;24.88;;;15.07;;
40717;SDS011;26405;51.850;-2.246;2022-12-13T12:10:00;26.90;;;16.20;;
40717;SDS011;26405;51.850;-2.246;2022-12-13T12:12:34;26.70;;;16.23;;
40717;SDS011;26405;51.850;-2.246;2022-12-13T12:17:28;25.35;;;15.60;;
40717;SDS011;26405;51.850;-2.246;2022-12-13T12:20:09;25.30;;;15.60;;
40717;SDS011;26405;51.850;-2.246;2022-12-13T12:22:40;25.52;;;15.70;;
40717;SDS011;26405;51.850;-2.246;2022-12-13T12:30:31;25.20;;;15.93;;
40717;SDS011;26405;51.850;-2.246;2022-12-13T12:36:08;26.90;;;15.63;;
40717;SDS011;26405;51.850;-2.246;2022-12-13T12:38:57;24.45;;;14.77;;
40717;SDS011;26405;51.850;-2.246;2022-12-13T12:44:03;26.58;;;16.67;;
40717;SDS011;26405;51.850;-2.246;2022-12-13T12:52:01;26.63;;;15.82;;
40717;SDS011;26405;51.850;-2.246;2022-12-13T13:02:04;29.27;;;17.23;;
40717;SDS011;26405;51.850;-2.246;2022-12-13T13:04:32;28.25;;;16.23;;
40717;SDS011;26405;51.850;-2.246;2022-12-13T13:07:01;26.58;;;16.10;;
40717;SDS011;26405;51.850;-2.246;2022-12-13T13:09:31;28.67;;;16.52;;
40717;SDS011;26405;51.850;-2.246;2022-12-13T13:11:58;31.50;;;17.45;;
40717;SDS011;26405;51.850;-2.246;2022-12-13T13:14:36;31.30;;;17.67;;
40717;SDS011;26405;51.850;-2.246;2022-12-13T13:19:50;31.98;;;18.40;;
40717;SDS011;26405;51.850;-2.246;2022-12-13T13:22:25;27.88;;;16.88;;
40717;SDS011;26405;51.850;-2.246;2022-12-13T13:24:58;27.13;;;15.70;;
40717;SDS011;26405;51.850;-2.246;2022-12-13T13:27:27;27.38;;;16.02;;
40717;SDS011;26405;51.850;-2.246;2022-12-13T13:30:03;27.17;;;15.38;;
40717;SDS011;26405;51.850;-2.246;2022-12-13T13:32:29;25.92;;;15.05;;
40717;SDS011;26405;51.850;-2.246;2022-12-13T13:34:59;25.80;;;14.77;;
40717;SDS011;26405;51.850;-2.246;2022-12-13T13:37:44;25.65;;;15.15;;
40717;SDS011;26405;51.850;-2.246;2022-12-13T14:19:33;24.85;;;14.73;;
40717;SDS011;26405;51.850;-2.246;2022-12-13T14:30:13;24.85;;;14.20;;
40717;SDS011;26405;51.850;-2.246;2022-12-13T14:32:39;24.42;;;14.45;;
40717;SDS011;26405;51.850;-2.246;2022-12-13T14:35:05;26.42;;;14.75;;
40717;SDS011;26405;51.850;-2.246;2022-12-13T14:37:31;25.00;;;14.20;;
40717;SDS011;26405;51.850;-2.246;2022-12-13T14:39:57;24.17;;;13.95;;
40717;SDS011;26405;51.850;-2.246;2022-12-13T14:42:24;25.63;;;14.57;;
40717;SDS011;26405;51.850;-2.246;2022-12-13T14:44:49;23.60;;;13.52;;
40717;SDS011;26405;51.850;-2.246;2022-12-13T14:47:15;23.45;;;13.57;;
40717;SDS011;26405;51.850;-2.246;2022-12-13T14:49:41;23.40;;;13.60;;
40717;SDS011;26405;51.850;-2.246;2022-12-13T14:52:17;25.23;;;14.73;;
40717;SDS011;26405;51.850;-2.246;2022-12-13T14:54:46;25.33;;;14.48;;
40717;SDS011;26405;51.850;-2.246;2022-12-13T14:57:17;25.42;;;14.73;;
40717;SDS011;26405;51.850;-2.246;2022-12-13T14:59:44;27.60;;;15.68;;
40717;SDS011;26405;51.850;-2.246;2022-12-13T15:02:13;25.40;;;15.35;;
40717;SDS011;26405;51.850;-2.246;2022-12-13T15:04:38;30.98;;;16.02;;
40717;SDS011;26405;51.850;-2.246;2022-12-13T15:09:50;33.83;;;18.98;;
40717;SDS011;26405;51.850;-2.246;2022-12-13T15:12:17;29.35;;;17.10;;
40717;SDS011;26405;51.850;-2.246;2022-12-13T15:15:02;27.97;;;15.50;;
40717;SDS011;26405;51.850;-2.246;2022-12-13T15:17:29;26.90;;;15.65;;
40717;SDS011;26405;51.850;-2.246;2022-12-13T15:19:55;26.45;;;14.93;;
40717;SDS011;26405;51.850;-2.246;2022-12-13T15:22:20;26.73;;;16.33;;
40717;SDS011;26405;51.850;-2.246;2022-12-13T15:24:46;24.83;;;14.82;;
40717;SDS011;26405;51.850;-2.246;2022-12-13T15:27:16;30.37;;;16.27;;
40717;SDS011;26405;51.850;-2.246;2022-12-13T15:29:42;30.95;;;16.23;;
40717;SDS011;26405;51.850;-2.246;2022-12-13T15:32:11;26.05;;;15.65;;
40717;SDS011;26405;51.850;-2.246;2022-12-13T15:34:37;25.90;;;15.40;;
40717;SDS011;26405;51.850;-2.246;2022-12-13T15:37:06;27.40;;;15.48;;
40717;SDS011;26405;51.850;-2.246;2022-12-13T15:39:43;27.40;;;15.60;;
40717;SDS011;26405;51.850;-2.246;2022-12-13T15:42:19;27.13;;;16.48;;
40717;SDS011;26405;51.850;-2.246;2022-12-13T15:44:47;25.03;;;14.50;;
40717;SDS011;26405;51.850;-2.246;2022-12-13T15:47:14;27.48;;;15.95;;
40717;SDS011;26405;51.850;-2.246;2022-12-13T15:49:49;27.08;;;15.85;;
40717;SDS011;26405;51.850;-2.246;2022-12-13T15:54:53;28.73;;;16.05;;
40717;SDS011;26405;51.850;-2.246;2022-12-13T15:57:23;25.92;;;14.30;;
40717;SDS011;26405;51.850;-2.246;2022-12-13T15:59:59;27.90;;;15.20;;
40717;SDS011;26405;51.850;-2.246;2022-12-13T16:02:25;25.85;;;15.30;;
40717;SDS011;26405;51.850;-2.246;2022-12-13T16:04:52;26.13;;;15.50;;
40717;SDS011;26405;51.850;-2.246;2022-12-13T16:07:21;25.15;;;15.02;;
40717;SDS011;26405;51.850;-2.246;2022-12-13T16:09:47;28.13;;;16.55;;
40717;SDS011;26405;51.850;-2.246;2022-12-13T16:12:18;27.73;;;16.33;;
40717;SDS011;26405;51.850;-2.246;2022-12-13T16:14:45;27.90;;;16.33;;
40717;SDS011;26405;51.850;-2.246;2022-12-13T16:17:21;27.30;;;15.95;;
40717;SDS011;26405;51.850;-2.246;2022-12-13T16:19:48;26.45;;;14.77;;
40717;SDS011;26405;51.850;-2.246;2022-12-13T16:22:14;27.02;;;15.75;;
40717;SDS011;26405;51.850;-2.246;2022-12-13T16:24:39;25.52;;;15.27;;
40717;SDS011;26405;51.850;-2.246;2022-12-13T16:27:04;28.80;;;15.18;;